Kingman, Arizona
Current Conditions -  °F | °C
As of 7:51 AM on Friday 28 Nov 2014 (Local Time) from KIGM Reporting Station
Clear Clear  
Wind Chill: 43°   Ceiling: Unl
Heat Index: 43°   Visibility: NA
Dew Point: 12°   Wind: 0mph
Humidity: 28%   Direction: NA
Pressure: 30.13"   Gusts: NA
Location:  35.19°N, 114.05°W
Report Text: KIGM 281451Z AUTO 00000KT CLR 06/M11 A3013 RMK AO2 SLP174 T00611111 56000 $
Loading
Personal Weather Stations






























Interactive Weather Map New forecast layout! Learn more

10-Day Weather Forecast

Advertisements
Track Severe Weather on mobile